Fort Myers Beach, Florida
Current Conditions -  °F | °C
As of 1:53 AM on Sunday 21 Dec 2014 (Local Time) from KFMY Reporting Station
Scattered Clouds Scattered Clouds  
Wind Chill: 64°   Ceiling: Unl
Heat Index: 64°   Visibility: 10mi
Dew Point: 62°   Wind: 3mph
Humidity: 93%   Direction: 120°ESE
Pressure: 30.05"   Gusts: NA
Location:  26.45°N, 81.94°W
Report Text: KFMY 210653Z AUTO 12003KT 10SM SCT095 18/17 A3005 RMK AO2 SLP176 T01780167
Loading
Personal Weather Stations






























Interactive Weather Map New forecast layout! Learn more

10-Day Weather Forecast

Advertisements
Track Severe Weather on mobile